Time;durP1;ratioP1;P1;durP2;ratioP2;P2;SDS_P1;SDS_P2;PMS_P1;PMS_P2;Temp;Humidity;BMP_temperature;BMP_pressure;BME280_temperature;BME280_humidity;BME280_pressure;Samples;Min_cycle;Max_cycle;Signal;HPM_P1;HPM_P2
2023/08/18 00:01:33;;;;;;;6.30;3.50;;;;;;;17.68;74.78;99471.25;105889;1257;76760;-22
2023/08/18 00:04:01;;;;;;;7.30;3.90;;;;;;;18.22;75.41;99469.55;105734;1259;72301;-22
2023/08/18 00:06:30;;;;;;;6.10;4.20;;;;;;;18.31;74.09;99469.95;105592;1257;61577;-22
2023/08/18 00:08:57;;;;;;;6.70;4.70;;;;;;;18.17;74.68;99471.75;105598;1257;62449;-22
2023/08/18 00:11:25;;;;;;;8.70;4.70;;;;;;;17.95;74.42;99476.55;105727;1257;76918;-22
2023/08/18 00:13:53;;;;;;;6.80;5.00;;;;;;;17.71;74.45;99476.39;105738;1257;73603;-22
2023/08/18 00:16:21;;;;;;;6.60;5.10;;;;;;;17.47;75.05;99477.77;105862;1251;72726;-22
2023/08/18 00:18:49;;;;;;;5.30;3.40;;;;;;;17.28;76.70;99476.98;105656;1254;61803;-22
2023/08/18 00:21:16;;;;;;;5.50;3.90;;;;;;;17.68;76.61;99476.19;105883;1251;61007;-22
2023/08/18 00:23:45;;;;;;;8.30;4.40;;;;;;;18.16;73.53;99471.69;105854;1251;75547;-22
2023/08/18 00:26:13;;;;;;;7.80;4.50;;;;;;;18.16;73.60;99470.31;105924;1251;78339;-22
2023/08/18 00:28:40;;;;;;;8.20;4.60;;;;;;;17.91;74.87;99470.13;105852;1254;75155;-22
2023/08/18 00:31:08;;;;;;;11.20;5.30;;;;;;;17.65;75.58;99468.91;105724;1257;62819;-22
2023/08/18 00:33:36;;;;;;;9.60;6.10;;;;;;;17.43;75.79;99471.39;105746;1251;61402;-22
2023/08/18 00:36:04;;;;;;;8.80;6.10;;;;;;;17.19;74.86;99467.18;105880;1256;73045;-22
2023/08/18 00:38:32;;;;;;;5.60;3.70;;;;;;;16.98;76.12;99470.02;105892;1256;74486;-22
2023/08/18 00:41:00;;;;;;;7.50;5.10;;;;;;;17.35;77.30;99468.69;105682;1251;73224;-22
2023/08/18 00:43:28;;;;;;;7.00;5.20;;;;;;;17.83;75.09;99467.08;105792;1257;61522;-22
2023/08/18 00:45:56;;;;;;;7.70;4.90;;;;;;;17.83;73.57;99467.10;105726;1251;61535;-22
2023/08/18 00:48:23;;;;;;;7.80;5.40;;;;;;;17.56;73.15;99471.14;105678;1251;72076;-23
2023/08/18 00:50:51;;;;;;;8.50;5.70;;;;;;;17.22;73.77;99470.69;105618;1251;75734;-22
2023/08/18 00:53:19;;;;;;;7.60;5.40;;;;;;;16.92;75.75;99474.75;105683;1254;76774;-22
2023/08/18 00:55:49;;;;;;;8.30;5.60;;;;;;;16.64;79.11;99475.00;105945;1256;62819;-22
2023/08/18 00:58:16;;;;;;;9.30;3.70;;;;;;;16.43;81.07;99475.77;105678;1257;61170;-22
2023/08/18 01:00:44;;;;;;;6.70;3.60;;;;;;;16.92;79.80;99467.42;105883;1251;74414;-22
2023/08/18 01:03:13;;;;;;;6.00;4.20;;;;;;;17.46;77.23;99471.05;105755;1251;78346;-22
2023/08/18 01:05:42;;;;;;;13.40;4.80;;;;;;;17.53;75.64;99467.70;105837;1251;74058;-22
2023/08/18 01:08:10;;;;;;;6.40;4.70;;;;;;;17.37;75.33;99465.84;105855;1253;62532;-22
2023/08/18 01:11:04;;;;;;;9.00;5.20;;;;;;;17.16;76.08;99464.48;105678;1257;61092;-22
2023/08/18 01:13:47;;;;;;;11.40;5.20;;;;;;;16.91;76.80;99469.95;105708;1256;74281;-22
2023/08/18 01:16:23;;;;;;;5.20;3.90;;;;;;;16.74;76.35;99470.59;105739;1251;76543;-22
2023/08/18 01:18:51;;;;;;;7.00;3.60;;;;;;;17.25;75.68;99467.80;105725;1251;74909;-22
2023/08/18 01:21:19;;;;;;;5.90;4.40;;;;;;;17.69;73.80;99470.86;105617;1257;61247;-22
2023/08/18 01:23:47;;;;;;;5.00;4.50;;;;;;;17.65;73.95;99471.21;105526;1251;61229;-22
2023/08/18 01:26:14;;;;;;;6.20;4.40;;;;;;;17.35;74.28;99472.38;105635;1251;73068;-22
2023/08/18 01:28:43;;;;;;;7.20;5.00;;;;;;;17.00;73.46;99469.45;105681;1251;74484;-22
2023/08/18 01:31:14;;;;;;;7.60;5.00;;;;;;;16.64;75.06;99473.90;105650;1251;73183;-22
2023/08/18 01:33:52;;;;;;;10.10;5.50;;;;;;;16.31;75.51;99477.33;105664;1251;61474;-22
2023/08/18 01:36:23;;;;;;;6.20;3.90;;;;;;;16.09;76.68;99477.20;105713;1251;61189;-22
2023/08/18 01:38:51;;;;;;;8.50;4.50;;;;;;;16.55;76.85;99476.48;105708;1259;74574;-22
2023/08/18 01:41:22;;;;;;;5.00;4.40;;;;;;;17.02;75.20;99473.61;105748;1251;78408;-22
2023/08/18 01:43:51;;;;;;;6.20;4.60;;;;;;;17.00;75.34;99472.38;105718;1254;75144;-22
2023/08/18 01:46:18;;;;;;;9.00;5.40;;;;;;;16.80;76.28;99473.72;105516;1251;61448;-22
2023/08/18 01:48:46;;;;;;;7.10;5.20;;;;;;;16.51;76.48;99477.05;105838;1257;61247;-22
2023/08/18 01:51:14;;;;;;;7.70;6.00;;;;;;;16.22;76.87;99475.88;105692;1251;71869;-22
2023/08/18 01:53:42;;;;;;;6.90;3.90;;;;;;;15.98;78.85;99476.28;105637;1251;77344;-22
2023/08/18 01:56:10;;;;;;;7.30;4.40;;;;;;;16.35;79.04;99473.05;105734;1257;72695;-22
2023/08/18 01:58:38;;;;;;;7.80;4.60;;;;;;;16.74;77.47;99470.11;105700;1251;61157;-22
2023/08/18 02:01:07;;;;;;;5.90;5.00;;;;;;;16.68;76.59;99469.06;105696;1251;62410;-22
2023/08/18 02:03:35;;;;;;;6.30;4.20;;;;;;;16.46;75.87;99469.33;105719;1251;74535;-22
2023/08/18 02:13:42;;;;;;;4.30;3.70;;;;;;;15.71;78.64;99476.11;102555;1297;599539;-23
2023/08/18 02:16:09;;;;;;;7.30;3.70;;;;;;;16.27;77.54;99470.39;104793;1270;61142;-21
2023/08/18 02:18:38;;;;;;;6.20;4.50;;;;;;;16.73;75.72;99473.52;104747;1272;61120;-21
2023/08/18 02:21:06;;;;;;;5.30;4.50;;;;;;;16.76;75.03;99478.50;104849;1267;76197;-21
2023/08/18 02:23:34;;;;;;;8.00;5.40;;;;;;;16.57;75.35;99476.01;104695;1267;76802;-23
2023/08/18 02:26:04;;;;;;;5.90;5.10;;;;;;;16.33;76.50;99476.48;104743;1270;75745;-23
2023/08/18 02:28:33;;;;;;;4.40;3.80;;;;;;;16.09;75.90;99473.69;102754;1271;61259;-23
2023/08/18 02:31:02;;;;;;;5.20;4.60;;;;;;;15.86;75.88;99478.02;104757;1266;61259;-23
2023/08/18 02:33:30;;;;;;;6.90;3.70;;;;;;;15.64;77.21;99475.19;104820;1272;72290;-23
2023/08/18 02:36:01;;;;;;;3.90;3.50;;;;;;;16.07;77.78;99472.81;104857;1266;76808;-23
2023/08/18 02:38:30;;;;;;;4.60;4.10;;;;;;;16.57;75.91;99472.83;104832;1271;72748;-23
2023/08/18 02:40:58;;;;;;;6.10;4.40;;;;;;;16.55;74.74;99472.31;104870;1267;62574;-23
2023/08/18 02:43:26;;;;;;;4.60;4.20;;;;;;;16.28;74.96;99477.80;104837;1270;61234;-23
2023/08/18 02:45:56;;;;;;;5.40;4.90;;;;;;;16.02;76.28;99484.14;104905;1270;71872;-23
2023/08/18 02:48:26;;;;;;;5.70;4.40;;;;;;;15.76;77.75;99484.71;104834;1271;76785;-23
2023/08/18 02:51:04;;;;;;;4.70;3.40;;;;;;;15.53;81.38;99484.20;104737;1272;72761;-22
2023/08/18 02:53:32;;;;;;;4.70;3.70;;;;;;;15.95;80.96;99481.82;104787;1273;62662;-23
2023/08/18 02:56:00;;;;;;;7.10;3.80;;;;;;;16.43;77.69;99481.63;105026;1266;61459;-22
2023/08/18 02:58:30;;;;;;;4.60;4.00;;;;;;;16.50;75.97;99481.25;105040;1266;71851;-23
2023/08/18 03:01:05;;;;;;;4.80;4.10;;;;;;;16.38;75.25;99483.10;104861;1272;74481;-23
2023/08/18 03:06:20;;;;;;;6.10;4.10;;;;;;;15.94;75.93;99484.88;104872;1267;62684;-22
2023/08/18 03:08:48;;;;;;;6.80;4.40;;;;;;;15.70;76.21;99482.81;105005;1266;61208;-23
2023/08/18 03:11:16;;;;;;;3.80;3.30;;;;;;;15.52;77.67;99479.77;104805;1266;73146;-23
2023/08/18 03:13:44;;;;;;;5.30;3.70;;;;;;;16.00;77.78;99482.23;104832;1270;73290;-22
2023/08/18 03:16:11;;;;;;;5.20;3.70;;;;;;;16.52;75.70;99477.19;104862;1267;75156;-23
2023/08/18 03:18:39;;;;;;;5.70;4.20;;;;;;;16.58;75.09;99478.94;104776;1266;62702;-23
2023/08/18 03:21:07;;;;;;;5.50;4.30;;;;;;;16.48;74.73;99483.02;104747;1267;62879;-23
2023/08/18 03:23:35;;;;;;;5.50;3.30;;;;;;;16.44;74.46;99481.08;104831;1266;75585;-23
2023/08/18 03:26:04;;;;;;;7.10;4.10;;;;;;;16.43;73.80;99481.00;104801;1270;76732;-23
2023/08/18 03:28:38;;;;;;;5.40;3.90;;;;;;;16.41;74.28;99481.05;104459;1272;75399;-22
2023/08/18 03:31:06;;;;;;;5.30;3.10;;;;;;;16.47;74.55;99485.40;104588;1267;64134;-22
2023/08/18 03:33:35;;;;;;;8.50;3.30;;;;;;;17.16;73.43;99483.52;105615;1254;61109;-22
2023/08/18 03:36:06;;;;;;;6.30;3.80;;;;;;;17.91;70.84;99486.48;105627;1254;74431;-22
2023/08/18 03:38:34;;;;;;;4.90;3.60;;;;;;;18.03;69.43;99488.45;105597;1253;76756;-23
2023/08/18 03:41:03;;;;;;;9.90;4.10;;;;;;;17.93;69.42;99484.48;105649;1257;72727;-23
2023/08/18 03:43:32;;;;;;;4.60;4.20;;;;;;;17.78;70.02;99492.21;105663;1254;62538;-22
2023/08/18 03:46:03;;;;;;;6.80;5.00;;;;;;;17.73;70.40;99492.17;105530;1254;61155;-23
2023/08/18 03:48:31;;;;;;;7.60;4.90;;;;;;;17.70;70.62;99500.00;105376;1254;77068;-23
2023/08/18 03:50:59;;;;;;;8.30;5.30;;;;;;;17.78;70.67;99502.92;105431;1259;74424;-22
2023/08/18 03:53:27;;;;;;;4.60;3.90;;;;;;;17.88;70.62;99498.87;105408;1253;71449;-23
2023/08/18 03:55:56;;;;;;;4.80;3.60;;;;;;;18.54;70.34;99498.09;105612;1254;61195;-23
2023/08/18 03:58:24;;;;;;;6.20;4.00;;;;;;;19.38;68.17;99500.08;105658;1254;61442;-23
2023/08/18 04:01:01;;;;;;;6.20;4.60;;;;;;;19.78;66.78;99503.41;105693;1255;74867;-23
2023/08/18 04:03:29;;;;;;;8.00;4.60;;;;;;;19.83;66.18;99507.43;105693;1260;74541;-23
2023/08/18 04:05:57;;;;;;;8.80;5.20;;;;;;;19.73;66.44;99504.77;105600;1253;73315;-23
2023/08/18 04:08:25;;;;;;;9.60;5.00;;;;;;;19.71;67.05;99504.84;105598;1257;63281;-23
2023/08/18 04:10:53;;;;;;;10.20;5.60;;;;;;;19.67;67.42;99506.50;105688;1253;61190;-23
2023/08/18 04:13:22;;;;;;;13.80;6.20;;;;;;;19.66;67.28;99507.35;105655;1253;75780;-23
2023/08/18 04:15:49;;;;;;;16.80;6.30;;;;;;;19.63;67.52;99506.67;105652;1253;74454;-23
2023/08/18 04:18:18;;;;;;;15.40;6.00;;;;;;;19.71;67.87;99508.67;105515;1259;75475;-23
2023/08/18 04:20:46;;;;;;;7.30;4.00;;;;;;;19.82;67.97;99507.39;105647;1254;63613;-23
2023/08/18 04:23:14;;;;;;;7.10;4.50;;;;;;;20.51;66.86;99505.62;105712;1259;62467;-23
2023/08/18 04:25:43;;;;;;;9.20;4.40;;;;;;;21.16;63.79;99500.61;105630;1258;76000;-22
2023/08/18 04:28:11;;;;;;;6.50;3.90;;;;;;;21.49;63.54;99500.20;105561;1259;73214;-23
2023/08/18 04:30:39;;;;;;;6.00;4.40;;;;;;;21.62;62.40;99496.42;105610;1257;74927;-23
2023/08/18 04:33:11;;;;;;;9.60;4.00;;;;;;;21.64;62.52;99500.55;105679;1259;61900;-23
2023/08/18 04:35:39;;;;;;;5.00;3.60;;;;;;;21.69;62.68;99502.09;105635;1254;61154;-23
2023/08/18 04:38:08;;;;;;;4.70;3.50;;;;;;;21.64;61.86;99495.71;105667;1258;74427;-23
2023/08/18 04:40:37;;;;;;;4.80;3.80;;;;;;;21.60;62.24;99494.81;105713;1253;75284;-22
2023/08/18 04:43:05;;;;;;;7.80;3.40;;;;;;;21.57;62.60;99498.35;105669;1254;75508;-23
2023/08/18 04:45:34;;;;;;;6.70;3.30;;;;;;;21.41;62.17;99498.27;105621;1259;62562;-23
2023/08/18 04:48:03;;;;;;;6.20;3.30;;;;;;;21.38;63.04;99499.95;105621;1254;61459;-23
2023/08/18 04:50:31;;;;;;;7.90;3.40;;;;;;;21.55;62.72;99503.04;105510;1253;76689;-23
2023/08/18 04:53:00;;;;;;;8.40;3.30;;;;;;;21.61;62.18;99499.88;105611;1253;75537;-23
2023/08/18 04:55:27;;;;;;;4.60;3.30;;;;;;;21.58;62.10;99501.45;105562;1254;72104;-22
2023/08/18 04:57:55;;;;;;;6.30;3.60;;;;;;;21.62;62.26;99501.81;105525;1257;61125;-22
2023/08/18 05:00:23;;;;;;;5.90;3.10;;;;;;;21.77;62.58;99502.11;105666;1253;62693;-22
2023/08/18 05:02:51;;;;;;;4.90;3.00;;;;;;;21.93;62.29;99506.55;105515;1254;73080;-22
2023/08/18 05:05:20;;;;;;;4.20;3.30;;;;;;;22.12;61.61;99506.08;105605;1254;76249;-23
2023/08/18 05:07:48;;;;;;;4.40;3.10;;;;;;;22.29;61.51;99502.92;105402;1259;75220;-23
2023/08/18 05:10:15;;;;;;;3.60;3.00;;;;;;;22.44;60.82;99504.48;105432;1259;64176;-23
2023/08/18 05:12:43;;;;;;;8.40;3.20;;;;;;;22.58;60.74;99505.96;105319;1259;63709;-22
2023/08/18 05:15:12;;;;;;;8.50;3.30;;;;;;;22.72;59.64;99506.31;105450;1258;74528;-22
2023/08/18 05:17:40;;;;;;;5.50;3.00;;;;;;;22.64;59.77;99503.39;105460;1254;76462;-22
2023/08/18 05:20:11;;;;;;;8.10;3.60;;;;;;;22.75;60.09;99503.27;105684;1257;75243;-22
2023/08/18 05:22:39;;;;;;;7.00;3.10;;;;;;;22.96;59.68;99504.13;105571;1254;61189;-22
2023/08/18 05:25:08;;;;;;;7.90;2.90;;;;;;;23.07;59.08;99503.67;105664;1254;62986;-22
2023/08/18 05:27:36;;;;;;;4.80;2.90;;;;;;;23.21;59.12;99506.66;105680;1259;76544;-21
2023/08/18 05:30:05;;;;;;;6.00;3.10;;;;;;;23.40;58.46;99507.74;105489;1255;76842;-22
2023/08/18 05:32:33;;;;;;;3.70;3.00;;;;;;;23.41;57.89;99506.14;105567;1259;72750;-22
2023/08/18 05:35:02;;;;;;;4.50;3.20;;;;;;;23.50;58.23;99507.13;105643;1255;61105;-22
2023/08/18 05:37:29;;;;;;;5.00;2.80;;;;;;;23.66;57.59;99507.55;105690;1253;61038;-22
2023/08/18 05:39:57;;;;;;;4.10;2.70;;;;;;;23.71;57.47;99506.91;105633;1253;73120;-25
2023/08/18 05:50:03;;;;;;;5.80;2.90;;;;;;;24.11;57.56;99515.08;102692;1289;600162;-24
2023/08/18 05:52:31;;;;;;;4.70;3.00;;;;;;;24.25;56.78;99517.14;104737;1271;61163;-23
2023/08/18 05:54:59;;;;;;;6.00;3.00;;;;;;;24.39;56.37;99521.40;104766;1280;61180;-23
2023/08/18 05:57:26;;;;;;;9.50;3.90;;;;;;;24.48;55.86;99520.37;104803;1271;71970;-23
2023/08/18 05:59:54;;;;;;;8.50;3.50;;;;;;;24.47;55.95;99522.73;104785;1267;76859;-24
2023/08/18 06:02:22;;;;;;;7.60;3.50;;;;;;;24.45;55.62;99523.45;104779;1272;71571;-22
2023/08/18 06:04:50;;;;;;;7.10;3.30;;;;;;;24.38;56.58;99521.11;102785;1267;2880780;-22
2023/08/18 06:07:18;;;;;;;6.80;3.70;;;;;;;24.41;56.14;99518.29;104875;1267;62373;-22
2023/08/18 06:09:46;;;;;;;4.20;3.10;;;;;;;24.39;56.52;99521.48;104869;1270;74824;-22
2023/08/18 06:12:14;;;;;;;6.60;3.30;;;;;;;24.40;56.50;99521.44;104817;1271;76732;-22
2023/08/18 06:14:42;;;;;;;7.10;3.20;;;;;;;24.39;56.08;99520.22;104830;1267;76623;-22
2023/08/18 06:17:10;;;;;;;4.90;2.60;;;;;;;24.42;56.02;99520.21;105219;1266;63997;-23
2023/08/18 06:19:37;;;;;;;5.00;2.40;;;;;;;24.40;56.04;99519.56;105325;1263;62935;-23
2023/08/18 06:22:05;;;;;;;3.40;2.70;;;;;;;24.47;55.83;99522.27;105161;1263;75217;-22
2023/08/18 06:24:33;;;;;;;4.10;2.20;;;;;;;24.52;55.29;99521.64;105135;1266;73328;-22
2023/08/18 06:27:01;;;;;;;3.50;2.30;;;;;;;24.52;55.53;99522.87;105101;1260;74038;-22
2023/08/18 06:29:29;;;;;;;3.90;2.70;;;;;;;24.62;55.04;99523.77;105284;1263;63898;-22
2023/08/18 06:31:57;;;;;;;8.40;2.40;;;;;;;24.70;54.63;99520.44;105083;1260;61440;-23
2023/08/18 06:34:25;;;;;;;6.50;2.80;;;;;;;24.76;54.26;99523.09;105361;1260;73117;-23
2023/08/18 06:36:52;;;;;;;4.70;2.50;;;;;;;24.85;53.93;99525.41;105334;1259;74439;-23
2023/08/18 06:39:20;;;;;;;3.70;2.50;;;;;;;24.92;53.97;99522.25;105405;1260;76607;-23
2023/08/18 06:41:48;;;;;;;4.70;2.30;;;;;;;25.00;53.25;99518.52;105398;1261;62535;-22
2023/08/18 06:44:19;;;;;;;5.30;2.20;;;;;;;25.08;53.48;99519.35;105394;1260;61150;-21
2023/08/18 06:46:47;;;;;;;3.80;2.40;;;;;;;25.20;52.58;99516.73;105252;1261;75597;-23
2023/08/18 06:49:15;;;;;;;1.90;1.70;;;;;;;25.34;52.58;99514.84;105494;1261;74427;-22
2023/08/18 06:51:43;;;;;;;3.40;2.10;;;;;;;25.52;52.54;99515.63;105357;1260;72673;-22
2023/08/18 06:54:10;;;;;;;4.00;2.00;;;;;;;25.70;52.13;99519.49;105227;1261;62554;-22
2023/08/18 06:56:38;;;;;;;4.00;2.20;;;;;;;25.83;51.66;99521.36;105245;1264;62186;-22
2023/08/18 06:59:06;;;;;;;8.10;2.20;;;;;;;25.94;51.40;99519.42;105488;1263;73857;-22
2023/08/18 07:01:34;;;;;;;3.60;2.30;;;;;;;26.16;51.57;99518.71;105422;1264;74575;-22
2023/08/18 07:04:04;;;;;;;4.00;2.00;;;;;;;26.38;50.75;99517.20;105357;1261;75220;-22
2023/08/18 07:06:33;;;;;;;3.00;1.80;;;;;;;26.58;50.32;99512.52;105391;1261;61565;-22
2023/08/18 07:09:01;;;;;;;5.50;2.10;;;;;;;26.72;48.95;99514.71;105240;1260;62553;-22
2023/08/18 07:11:29;;;;;;;8.10;1.90;;;;;;;26.72;48.91;99515.05;105109;1264;71795;-22
2023/08/18 07:13:57;;;;;;;2.70;1.70;;;;;;;26.68;49.05;99512.88;105053;1263;73272;-22
2023/08/18 07:16:25;;;;;;;2.60;2.30;;;;;;;26.76;49.61;99513.79;105204;1261;75442;-22
2023/08/18 07:18:53;;;;;;;3.20;2.30;;;;;;;26.90;49.22;99516.39;105170;1260;61118;-22
2023/08/18 07:21:20;;;;;;;2.30;1.60;;;;;;;26.98;48.57;99518.73;105048;1261;61154;-22
2023/08/18 07:23:48;;;;;;;4.10;1.60;;;;;;;27.07;47.73;99518.66;105320;1261;73080;-22
2023/08/18 07:26:16;;;;;;;1.50;1.40;;;;;;;27.11;46.67;99517.61;105256;1260;74534;-22
2023/08/18 07:28:44;;;;;;;4.90;1.50;;;;;;;27.26;47.69;99516.06;105207;1264;75474;-22
2023/08/18 07:31:12;;;;;;;2.40;1.70;;;;;;;27.39;46.60;99513.98;105344;1260;62517;-22
2023/08/18 07:33:40;;;;;;;1.90;1.50;;;;;;;27.41;46.19;99507.38;105259;1264;61052;-22
2023/08/18 07:36:08;;;;;;;3.20;1.80;;;;;;;27.16;45.71;99513.14;105368;1264;76922;-23
2023/08/18 07:38:36;;;;;;;5.40;1.70;;;;;;;27.00;45.72;99506.05;105509;1263;76725;-22
2023/08/18 07:41:03;;;;;;;2.00;1.40;;;;;;;27.09;45.87;99508.13;105341;1259;74133;-22
2023/08/18 07:43:31;;;;;;;2.10;1.40;;;;;;;27.34;45.12;99508.91;105332;1260;62281;-22
2023/08/18 07:45:59;;;;;;;4.50;1.30;;;;;;;27.41;44.72;99507.33;105249;1265;61196;-22
2023/08/18 07:48:27;;;;;;;4.70;1.70;;;;;;;27.55;44.38;99505.91;105305;1266;74161;-22
2023/08/18 07:50:56;;;;;;;2.50;1.90;;;;;;;27.58;44.79;99504.92;105379;1260;78380;-22
2023/08/18 07:53:26;;;;;;;3.50;1.60;;;;;;;27.90;44.17;99506.33;105390;1263;76692;-23
2023/08/18 07:55:54;;;;;;;3.60;1.40;;;;;;;28.21;43.11;99506.59;105217;1261;62513;-22
2023/08/18 07:58:21;;;;;;;2.00;1.40;;;;;;;28.49;42.87;99507.41;105180;1260;61167;-23
2023/08/18 08:00:50;;;;;;;1.70;1.30;;;;;;;28.72;41.39;99507.20;105167;1263;73093;-22
2023/08/18 08:03:18;;;;;;;3.80;1.40;;;;;;;28.68;41.63;99508.58;105261;1263;73609;-23
2023/08/18 08:05:46;;;;;;;2.70;1.30;;;;;;;28.87;41.50;99506.63;105204;1260;73327;-22
2023/08/18 08:08:14;;;;;;;2.90;1.40;;;;;;;29.12;40.61;99505.85;105063;1260;61502;-21
2023/08/18 08:10:42;;;;;;;1.50;1.20;;;;;;;29.44;40.91;99505.55;105205;1264;61112;-22
2023/08/18 08:13:10;;;;;;;5.80;1.60;;;;;;;29.77;39.66;99504.10;105278;1261;71913;-21
2023/08/18 08:25:18;;;;;;;2.90;1.50;;;;;;;28.96;39.62;99513.30;105423;1259;61212;-21
2023/08/18 08:27:46;;;;;;;5.20;1.70;;;;;;;28.58;40.12;99511.20;105325;1258;61113;-22
2023/08/18 08:30:14;;;;;;;2.70;1.60;;;;;;;28.10;40.30;99513.22;105245;1264;75151;-23
2023/08/18 08:33:03;;;;;;;2.30;1.50;;;;;;;28.51;40.93;99508.57;105444;1260;74420;-21
2023/08/18 08:35:33;;;;;;;1.80;1.10;;;;;;;29.08;40.28;99502.98;105381;1260;75184;-22
2023/08/18 08:38:01;;;;;;;3.30;1.40;;;;;;;29.22;39.07;99503.59;105537;1261;62914;-21
2023/08/18 08:40:29;;;;;;;4.10;1.30;;;;;;;29.29;39.11;99503.24;105322;1260;61263;-21
2023/08/18 08:42:58;;;;;;;1.70;1.30;;;;;;;29.37;39.06;99503.85;105225;1260;74100;-21
2023/08/18 08:45:29;;;;;;;3.80;1.70;;;;;;;29.57;38.93;99500.38;105276;1265;76799;-22
2023/08/18 08:47:57;;;;;;;4.90;1.40;;;;;;;29.85;38.05;99501.56;105196;1267;71826;-22
2023/08/18 08:50:28;;;;;;;2.50;1.50;;;;;;;29.99;38.50;99501.60;105203;1261;62302;-22
2023/08/18 08:53:00;;;;;;;4.20;1.50;;;;;;;30.38;37.24;99499.92;105133;1260;62522;-22
2023/08/18 08:55:31;;;;;;;3.60;1.70;;;;;;;30.06;37.39;99500.05;105228;1260;66995;-22
2023/08/18 08:58:00;;;;;;;2.80;1.80;;;;;;;29.75;37.89;99498.98;105244;1261;77517;-22
2023/08/18 09:00:27;;;;;;;2.80;1.30;;;;;;;29.83;38.22;99502.82;105429;1261;72710;-29
2023/08/18 09:02:59;;;;;;;1.80;1.40;;;;;;;29.88;38.12;99500.39;105228;1260;62586;-22
2023/08/18 09:05:31;;;;;;;3.50;1.50;;;;;;;29.69;38.58;99504.89;105124;1265;61626;-22
2023/08/18 09:07:59;;;;;;;4.60;1.90;;;;;;;29.24;39.14;99502.84;105117;1260;72260;-23
2023/08/18 09:10:28;;;;;;;8.50;2.40;;;;;;;29.15;39.45;99507.20;105318;1260;74468;-22
2023/08/18 09:12:55;;;;;;;4.50;1.70;;;;;;;29.11;39.68;99507.19;105176;1264;70751;-22
2023/08/18 09:15:24;;;;;;;3.50;1.70;;;;;;;29.16;40.07;99504.91;105344;1263;61555;-23
2023/08/18 09:17:52;;;;;;;2.70;1.40;;;;;;;29.07;39.54;99505.44;105245;1260;61483;-22
2023/08/18 09:20:21;;;;;;;1.90;1.60;;;;;;;28.91;39.69;99510.52;105214;1261;73050;-22
2023/08/18 09:22:56;;;;;;;3.20;1.60;;;;;;;28.70;40.18;99507.84;104889;1266;76529;-23
2023/08/18 09:25:24;;;;;;;2.60;1.50;;;;;;;28.46;40.63;99509.48;105169;1263;72732;-22
2023/08/18 09:27:55;;;;;;;3.40;1.70;;;;;;;28.50;40.19;99504.02;105366;1260;62569;-23
2023/08/18 09:30:26;;;;;;;1.90;1.70;;;;;;;28.70;40.45;99501.90;105245;1263;62199;-23
2023/08/18 09:32:54;;;;;;;5.80;1.70;;;;;;;29.20;39.60;99497.69;105230;1263;76949;-22
2023/08/18 09:35:22;;;;;;;3.90;2.00;;;;;;;29.55;38.58;99494.87;105288;1263;73224;-23
2023/08/18 09:37:57;;;;;;;5.70;2.00;;;;;;;29.89;38.06;99497.89;105287;1261;73212;-22
2023/08/18 09:40:25;;;;;;;4.30;1.80;;;;;;;30.34;37.59;99493.52;105242;1262;61196;-22
2023/08/18 09:42:54;;;;;;;5.90;1.90;;;;;;;30.92;36.88;99491.40;105274;1259;62224;-21
2023/08/18 09:45:23;;;;;;;2.80;2.10;;;;;;;30.99;35.90;99489.09;105301;1265;64279;-22
2023/08/18 09:47:55;;;;;;;4.20;1.80;;;;;;;30.84;35.78;99486.73;105249;1260;67006;-23
2023/08/18 09:50:26;;;;;;;4.10;2.00;;;;;;;30.14;36.89;99484.35;105255;1265;75219;-22
2023/08/18 09:52:57;;;;;;;2.80;1.70;;;;;;;30.04;37.45;99488.43;105203;1261;64011;-22
2023/08/18 09:55:32;;;;;;;2.60;1.60;;;;;;;30.28;37.04;99489.46;105269;1263;61197;-22
2023/08/18 09:58:08;;;;;;;8.20;1.60;;;;;;;30.67;36.51;99490.46;105173;1269;75636;-22
2023/08/18 10:00:37;;;;;;;4.90;1.50;;;;;;;31.50;35.27;99493.60;105308;1264;68275;-24
2023/08/18 10:03:04;;;;;;;2.80;1.40;;;;;;;32.21;33.71;99491.30;105239;1260;65163;-23
2023/08/18 10:05:32;;;;;;;5.10;1.70;;;;;;;32.70;33.36;99493.35;105271;1264;61205;-23
2023/08/18 10:08:01;;;;;;;3.70;1.60;;;;;;;32.35;33.05;99492.36;105314;1263;61160;-23
2023/08/18 10:10:29;;;;;;;4.00;1.50;;;;;;;31.98;33.31;99493.31;105292;1258;66282;-23
2023/08/18 10:12:57;;;;;;;2.20;1.40;;;;;;;31.92;33.07;99486.57;105340;1258;68167;-24
2023/08/18 10:15:25;;;;;;;1.70;1.30;;;;;;;31.55;33.50;99490.20;105252;1257;62549;-23
2023/08/18 10:17:53;;;;;;;2.70;1.50;;;;;;;31.54;33.96;99492.09;105124;1260;61120;-23
2023/08/18 10:20:20;;;;;;;7.00;1.60;;;;;;;31.48;33.80;99491.48;105123;1258;61037;-23
2023/08/18 10:22:48;;;;;;;3.90;1.60;;;;;;;31.35;34.07;99487.05;105054;1265;64990;-23
2023/08/18 10:25:24;;;;;;;3.50;1.50;;;;;;;31.50;33.67;99486.02;105186;1257;67852;-23
2023/08/18 10:27:52;;;;;;;9.00;2.10;;;;;;;31.99;33.08;99485.98;105160;1257;65255;-23
2023/08/18 10:30:20;;;;;;;2.60;1.50;;;;;;;32.28;32.68;99484.29;105156;1264;61254;-23
2023/08/18 10:32:49;;;;;;;2.90;1.40;;;;;;;32.57;32.38;99487.84;105494;1257;61107;-23
2023/08/18 10:35:19;;;;;;;3.00;1.50;;;;;;;32.89;31.72;99484.41;105276;1257;67818;-23
2023/08/18 10:37:51;;;;;;;2.20;1.50;;;;;;;33.28;31.80;99483.64;105273;1264;68403;-23
2023/08/18 10:40:26;;;;;;;2.50;1.40;;;;;;;33.97;30.83;99484.52;104918;1266;63369;-23
2023/08/18 10:42:59;;;;;;;4.00;1.40;;;;;;;34.58;29.99;99481.77;105185;1257;60983;-23
2023/08/18 10:45:28;;;;;;;2.40;1.30;;;;;;;34.97;29.30;99482.24;105143;1258;61112;-23
2023/08/18 10:48:02;;;;;;;2.80;1.20;;;;;;;35.25;28.52;99478.55;105208;1262;64855;-24
2023/08/18 10:50:31;;;;;;;3.00;1.70;;;;;;;35.51;27.95;99480.15;105242;1264;75604;-24
2023/08/18 10:53:01;;;;;;;3.60;1.50;;;;;;;35.31;28.36;99477.88;105159;1257;65200;-24
2023/08/18 10:55:30;;;;;;;6.50;1.70;;;;;;;35.48;28.54;99475.35;105150;1258;61103;-24
2023/08/18 10:57:58;;;;;;;3.60;1.40;;;;;;;35.03;28.59;99472.36;105105;1263;61925;-24
2023/08/18 11:00:30;;;;;;;2.30;1.30;;;;;;;35.07;28.40;99472.03;105388;1262;67452;-23
2023/08/18 11:02:58;;;;;;;2.40;1.60;;;;;;;35.29;28.43;99471.11;105149;1258;67289;-22
2023/08/18 11:05:26;;;;;;;2.10;1.40;;;;;;;35.57;28.17;99473.82;105243;1262;66254;-22
2023/08/18 11:07:55;;;;;;;1.90;1.30;;;;;;;35.78;27.67;99470.35;105323;1258;61135;-22
2023/08/18 11:10:23;;;;;;;3.50;1.50;;;;;;;35.29;28.11;99468.79;105280;1258;61087;-22
2023/08/18 11:12:53;;;;;;;2.70;1.10;;;;;;;35.48;28.37;99467.65;105432;1262;67596;-22
2023/08/18 11:15:23;;;;;;;2.30;1.20;;;;;;;35.83;27.58;99463.44;105274;1257;76697;-22
2023/08/18 11:17:51;;;;;;;2.70;1.40;;;;;;;35.50;27.94;99464.38;105566;1258;65606;-22
2023/08/18 11:20:19;;;;;;;3.50;1.20;;;;;;;35.46;27.97;99464.70;105417;1262;61240;-22
2023/08/18 11:22:48;;;;;;;2.80;1.20;;;;;;;35.32;28.22;99465.09;105468;1258;61239;-23
2023/08/18 11:25:16;;;;;;;1.70;1.10;;;;;;;35.48;28.31;99463.48;105284;1257;66159;-23
2023/08/18 11:27:45;;;;;;;2.00;1.40;;;;;;;35.28;28.11;99464.46;105211;1258;65545;-22
2023/08/18 11:30:13;;;;;;;3.60;1.10;;;;;;;34.65;28.90;99464.77;105475;1258;67065;-22
2023/08/18 11:32:42;;;;;;;2.10;1.20;;;;;;;34.30;29.38;99467.77;105236;1260;61065;-23
2023/08/18 11:35:10;;;;;;;4.10;1.30;;;;;;;34.15;29.69;99463.51;105190;1260;61138;-22
2023/08/18 11:37:42;;;;;;;1.50;1.30;;;;;;;34.07;29.49;99460.39;105430;1257;65216;-22
2023/08/18 11:40:12;;;;;;;4.80;1.20;;;;;;;33.92;29.34;99456.17;105242;1264;64329;-22
2023/08/18 11:42:44;;;;;;;4.40;1.60;;;;;;;33.33;30.28;99452.29;105642;1257;63969;-24
2023/08/18 11:45:16;;;;;;;1.60;1.40;;;;;;;33.26;30.85;99449.70;105586;1254;61100;-22
2023/08/18 11:47:46;;;;;;;1.10;1.00;;;;;;;33.49;30.49;99450.63;105624;1254;61167;-22
2023/08/18 11:50:20;;;;;;;2.70;1.50;;;;;;;33.82;29.85;99445.73;105645;1260;67408;-22
2023/08/18 11:52:52;;;;;;;1.80;1.30;;;;;;;33.79;29.52;99445.79;105679;1253;65514;-22
2023/08/18 11:55:41;;;;;;;3.70;1.80;;;;;;;33.86;29.47;99446.12;105504;1258;66635;-22
2023/08/18 11:58:13;;;;;;;3.10;1.90;;;;;;;33.46;30.01;99448.05;105210;1262;61182;-22
2023/08/18 12:00:42;;;;;;;3.40;1.50;;;;;;;32.74;31.24;99454.33;105599;1253;61147;-23